Time;durP1;ratioP1;P1;durP2;ratioP2;P2;SDS_P1;SDS_P2;PMS_P1;PMS_P2;Temp;Humidity;BMP_temperature;BMP_pressure;BME280_temperature;BME280_humidity;BME280_pressure;Samples;Min_cycle;Max_cycle;Signal;HPM_P1;HPM_P2
2022/12/24 00:00:26;;;;;;;18.90;1.63;;;10.20;99.90;;;;;;5039639;28;20025;-80
2022/12/24 00:02:51;;;;;;;;;;;10.20;99.90;;;;;;5018237;28;20507;-79
2022/12/24 00:05:19;;;;;;;16.75;1.65;;;10.20;99.90;;;;;;5015964;28;19905;-79
2022/12/24 00:07:45;;;;;;;20.42;2.50;;;10.20;99.90;;;;;;5034109;28;20026;-79
2022/12/24 00:10:13;;;;;;;27.15;2.10;;;10.30;99.90;;;;;;5015223;28;20034;-80
2022/12/24 00:12:39;;;;;;;27.55;2.67;;;10.20;99.90;;;;;;5016739;28;20014;-78
2022/12/24 00:15:05;;;;;;;16.58;1.17;;;10.20;99.90;;;;;;5036514;28;20026;-79
2022/12/24 00:17:32;;;;;;;19.08;1.45;;;10.20;99.90;;;;;;5036475;28;20057;-79
2022/12/24 00:20:01;;;;;;;17.95;1.73;;;10.20;99.90;;;;;;5021086;28;20026;-83
2022/12/24 00:22:27;;;;;;;21.85;1.67;;;10.30;99.90;;;;;;5022350;28;20022;-84
2022/12/24 00:24:55;;;;;;;27.98;1.25;;;10.20;99.90;;;;;;5039938;28;20032;-84
2022/12/24 00:27:23;;;;;;;24.53;2.70;;;10.20;99.90;;;;;;5022323;28;20391;-84
2022/12/24 00:29:48;;;;;;;19.45;1.80;;;10.20;99.90;;;;;;5022607;28;20022;-84
2022/12/24 00:32:17;;;;;;;22.52;2.47;;;10.20;99.90;;;;;;5022741;28;20076;-85
2022/12/24 00:34:42;;;;;;;23.90;2.30;;;10.20;99.90;;;;;;5040487;28;20025;-84
2022/12/24 00:37:08;;;;;;;21.92;1.67;;;10.20;99.90;;;;;;5022750;28;20362;-83
2022/12/24 00:39:37;;;;;;;28.80;3.97;;;10.10;99.90;;;;;;5022537;28;20013;-84
2022/12/24 00:42:02;;;;;;;27.30;2.30;;;;;;;;;;5022094;28;20485;-83
2022/12/24 00:44:28;;;;;;;31.08;3.75;;;10.00;99.90;;;;;;5021918;28;20048;-84
2022/12/24 00:46:54;;;;;;;19.38;1.15;;;10.00;99.90;;;;;;5039389;28;20033;-84
2022/12/24 00:49:20;;;;;;;21.02;1.65;;;;;;;;;;5021543;28;20060;-83
2022/12/24 00:51:45;;;;;;;16.10;3.13;;;10.00;99.90;;;;;;5021782;28;20026;-83
2022/12/24 00:54:16;;;;;;;23.23;2.83;;;9.90;99.90;;;;;;5022569;28;20042;-84
2022/12/24 00:56:42;;;;;;;24.17;2.17;;;9.90;99.90;;;;;;5021705;28;20022;-83
2022/12/24 00:59:08;;;;;;;20.90;1.85;;;9.90;99.90;;;;;;5040515;28;20026;-84
2022/12/24 01:01:35;;;;;;;19.40;2.80;;;9.80;99.90;;;;;;5022870;28;20108;-79
2022/12/24 01:06:48;;;;;;;24.85;1.75;;;9.70;99.90;;;;;;5041468;28;20084;-79
2022/12/24 01:09:13;;;;;;;22.17;1.67;;;12.20;99.90;;;;;;5022776;28;20033;-79
2022/12/24 01:11:40;;;;;;;22.38;2.35;;;9.60;99.90;;;;;;5022902;28;20025;-79
2022/12/24 01:14:06;;;;;;;26.80;2.67;;;9.60;99.90;;;;;;5040508;28;20017;-79
2022/12/24 01:16:32;;;;;;;17.17;1.92;;;9.60;99.90;;;;;;5023031;28;20020;-79
2022/12/24 01:18:58;;;;;;;41.05;2.78;;;;;;;;;;5023247;28;20017;-79
2022/12/24 01:21:24;;;;;;;17.90;1.80;;;;;;;;;;5022980;28;20037;-80
2022/12/24 01:23:49;;;;;;;20.95;2.33;;;9.40;99.90;;;;;;5039897;28;20033;-80
2022/12/24 01:26:18;;;;;;;24.65;1.73;;;9.40;99.90;;;;;;5022887;28;20030;-79
2022/12/24 01:28:43;;;;;;;22.25;3.13;;;9.40;99.90;;;;;;5022057;28;20029;-80
2022/12/24 01:31:15;;;;;;;25.48;3.80;;;9.30;99.90;;;;;;5040613;28;20081;-79
2022/12/24 01:33:41;;;;;;;23.38;2.00;;;9.20;99.90;;;;;;5022811;28;20071;-79
2022/12/24 01:36:07;;;;;;;15.93;1.25;;;9.20;99.90;;;;;;5022479;28;20522;-79
2022/12/24 01:38:33;;;;;;;34.75;3.03;;;9.10;99.90;;;;;;5040822;28;20484;-80
2022/12/24 01:43:43;;;;;;;14.60;1.35;;;9.00;99.90;;;;;;5040300;28;20503;-79
2022/12/24 01:46:22;;;;;;;20.40;2.08;;;9.00;99.90;;;;;;5024078;28;20013;-79
2022/12/24 01:48:58;;;;;;;19.05;2.22;;;8.90;99.90;;;;;;5022321;28;20079;-80
2022/12/24 01:51:38;;;;;;;21.77;1.98;;;8.90;99.90;;;;;;5023339;28;20117;-80
2022/12/24 01:54:32;;;;;;;23.00;3.42;;;8.80;99.90;;;;;;5023361;28;20030;-80
2022/12/24 01:57:06;;;;;;;24.17;2.05;;;9.00;99.90;;;;;;5021110;28;20112;-80
2022/12/24 01:59:33;;;;;;;18.45;2.67;;;8.70;99.90;;;;;;5040738;28;20109;-80
2022/12/24 02:02:00;;;;;;;19.85;2.85;;;8.60;99.90;;;;;;5023017;28;20025;-80
2022/12/24 02:05:03;;;;;;;19.35;2.85;;;8.60;99.90;;;;;;5022829;28;20021;-80
2022/12/24 02:07:29;;;;;;;23.98;1.98;;;8.60;99.90;;;;;;5023201;28;20030;-79
2022/12/24 02:09:58;;;;;;;30.33;2.83;;;8.60;99.90;;;;;;5022476;28;20030;-80
2022/12/24 02:12:25;;;;;;;28.85;2.50;;;8.50;99.90;;;;;;5023091;28;20013;-80
2022/12/24 02:14:52;;;;;;;21.55;1.50;;;8.40;99.90;;;;;;5023496;28;20018;-80
2022/12/24 02:17:24;;;;;;;23.95;1.88;;;8.40;99.90;;;;;;5023443;28;20385;-80
2022/12/24 02:20:11;;;;;;;32.13;3.45;;;8.30;99.90;;;;;;5022605;28;20139;-80
2022/12/24 02:23:08;;;;;;;33.38;2.13;;;8.30;99.90;;;;;;5021852;28;20032;-80
2022/12/24 02:25:56;;;;;;;27.40;3.67;;;8.30;99.90;;;;;;5021658;28;20017;-80
2022/12/24 02:28:40;;;;;;;22.37;2.63;;;8.20;99.90;;;;;;5039835;28;20028;-81
2022/12/24 02:31:28;;;;;;;30.63;4.20;;;8.20;99.90;;;;;;5039861;28;20100;-80
2022/12/24 02:34:02;;;;;;;14.23;1.48;;;8.10;99.90;;;;;;5039760;28;20017;-80
2022/12/24 02:36:33;;;;;;;20.98;2.22;;;8.10;99.90;;;;;;5021650;28;20052;-80
2022/12/24 02:39:08;;;;;;;25.00;2.55;;;8.10;99.90;;;;;;5040186;28;20018;-80
2022/12/24 02:44:27;;;;;;;20.17;1.42;;;8.10;99.90;;;;;;5039733;28;20099;-80
2022/12/24 02:46:55;;;;;;;26.75;2.00;;;8.10;99.90;;;;;;5040421;28;20026;-80
2022/12/24 02:49:24;;;;;;;24.08;2.38;;;8.00;99.90;;;;;;5020249;28;20026;-79
2022/12/24 02:51:49;;;;;;;37.80;3.53;;;8.00;99.90;;;;;;5021007;28;20413;-80
2022/12/24 02:54:15;;;;;;;36.53;5.85;;;8.10;99.90;;;;;;5039134;28;20071;-80
2022/12/24 02:57:12;;;;;;;25.38;3.08;;;9.70;99.90;;;;;;5021468;28;20068;-80
2022/12/24 03:00:05;;;;;;;30.10;3.08;;;8.10;99.90;;;;;;5021033;28;20048;-80
2022/12/24 03:03:06;;;;;;;24.75;1.73;;;8.10;99.90;;;;;;5021275;28;20025;-80
2022/12/24 03:06:09;;;;;;;24.85;1.40;;;8.10;99.90;;;;;;5039367;28;20014;-80
2022/12/24 03:08:59;;;;;;;29.92;2.17;;;8.20;99.90;;;;;;5021890;28;20021;-80
2022/12/24 03:11:25;;;;;;;19.17;1.38;;;8.10;99.90;;;;;;5022065;28;20029;-80
2022/12/24 03:13:56;;;;;;;27.80;1.70;;;8.20;99.90;;;;;;5039793;28;20029;-80
2022/12/24 03:16:24;;;;;;;24.35;2.20;;;8.30;99.90;;;;;;5020935;28;20018;-80
2022/12/24 03:18:53;;;;;;;24.48;1.70;;;8.20;99.90;;;;;;5039478;28;20488;-80
2022/12/24 03:21:35;;;;;;;20.42;2.92;;;8.30;99.90;;;;;;5040297;28;20496;-81
2022/12/24 03:24:01;;;;;;;19.92;1.60;;;8.30;99.90;;;;;;5020995;28;20396;-80
2022/12/24 03:26:29;;;;;;;26.70;2.53;;;8.30;99.90;;;;;;5019628;28;20040;-80
2022/12/24 03:28:55;;;;;;;27.20;1.92;;;8.30;99.90;;;;;;5038844;28;20076;-80
2022/12/24 03:31:21;;;;;;;24.67;2.22;;;8.40;99.90;;;;;;5040085;28;20033;-80
2022/12/24 03:33:53;;;;;;;30.20;3.25;;;8.40;99.90;;;;;;5019358;28;20021;-80
2022/12/24 03:36:18;;;;;;;27.58;2.05;;;8.50;99.90;;;;;;5019938;28;20481;-81
2022/12/24 03:38:44;;;;;;;28.63;2.67;;;8.60;99.90;;;;;;5019469;28;20101;-81
2022/12/24 03:41:10;;;;;;;22.55;2.78;;;8.60;99.90;;;;;;5021040;28;20043;-80
2022/12/24 03:43:36;;;;;;;31.13;2.88;;;8.60;99.90;;;;;;5022452;28;20041;-81
2022/12/24 03:46:06;;;;;;;31.50;4.45;;;8.70;99.90;;;;;;5021613;28;20026;-80
2022/12/24 03:48:34;;;;;;;29.35;2.67;;;8.80;99.90;;;;;;5024571;28;20061;-80
2022/12/24 03:51:00;;;;;;;29.23;2.63;;;;;;;;;;5025734;28;20049;-80
2022/12/24 03:53:25;;;;;;;37.03;3.20;;;8.80;99.90;;;;;;5043458;28;20032;-80
2022/12/24 03:55:51;;;;;;;30.20;3.75;;;9.00;99.90;;;;;;5025152;28;20472;-80
2022/12/24 03:58:17;;;;;;;31.67;4.07;;;;;;;;;;5044172;28;20026;-79
2022/12/24 04:00:43;;;;;;;27.58;2.58;;;8.90;99.90;;;;;;5025717;28;20092;-80
2022/12/24 04:03:09;;;;;;;30.92;2.90;;;;;;;;;;5044326;28;20064;-80
2022/12/24 04:05:35;;;;;;;41.63;3.80;;;;;;;;;;5026612;28;20034;-80
2022/12/24 04:08:06;;;;;;;33.00;2.85;;;9.10;99.90;;;;;;5043484;28;20040;-80
2022/12/24 04:10:32;;;;;;;26.08;2.33;;;9.10;99.90;;;;;;5044437;28;20022;-80
2022/12/24 04:12:58;;;;;;;35.40;2.85;;;9.10;99.90;;;;;;5044625;28;20025;-80
2022/12/24 04:15:23;;;;;;;27.27;3.42;;;9.00;99.90;;;;;;5044508;28;20033;-80
2022/12/24 04:17:49;;;;;;;24.70;2.03;;;9.00;99.90;;;;;;5024963;28;20025;-81
2022/12/24 04:20:14;;;;;;;31.83;3.35;;;9.10;99.90;;;;;;5023434;28;20032;-81
2022/12/24 04:22:41;;;;;;;32.10;3.28;;;9.10;99.90;;;;;;5024080;28;20017;-81
2022/12/24 04:25:07;;;;;;;37.35;3.63;;;9.80;99.90;;;;;;5023833;28;20036;-83
2022/12/24 04:27:32;;;;;;;28.92;1.55;;;9.00;99.90;;;;;;5043540;28;20392;-82
2022/12/24 04:29:58;;;;;;;26.83;2.55;;;9.10;99.90;;;;;;5025366;28;20024;-82
2022/12/24 04:32:25;;;;;;;27.67;2.88;;;10.90;99.90;;;;;;5024482;28;20022;-82
2022/12/24 04:34:51;;;;;;;22.67;2.55;;;9.00;99.90;;;;;;5025016;28;20017;-83
2022/12/24 04:37:16;;;;;;;27.92;1.73;;;9.00;99.90;;;;;;5042329;28;20089;-83
2022/12/24 04:39:42;;;;;;;30.85;3.40;;;9.00;99.90;;;;;;5023007;28;20089;-82
2022/12/24 04:42:08;;;;;;;28.30;2.47;;;9.70;99.90;;;;;;5041199;28;20484;-83
2022/12/24 04:44:34;;;;;;;34.90;2.95;;;;;;;;;;5022146;28;20032;-84
2022/12/24 04:46:59;;;;;;;17.45;2.00;;;9.10;99.90;;;;;;5022750;28;20044;-83
2022/12/24 04:49:25;;;;;;;38.67;2.95;;;11.80;99.90;;;;;;5021969;28;20116;-86
2022/12/24 04:51:50;;;;;;;27.60;2.50;;;9.60;99.90;;;;;;5038486;28;20369;-85
2022/12/24 04:54:16;;;;;;;39.35;3.15;;;9.90;99.90;;;;;;5021518;28;20032;-85
2022/12/24 04:56:41;;;;;;;26.42;2.40;;;11.30;99.90;;;;;;5020977;28;20017;-84
2022/12/24 04:59:07;;;;;;;23.38;2.03;;;9.60;99.90;;;;;;5039685;28;20104;-84
2022/12/24 05:01:32;;;;;;;36.13;3.85;;;9.10;99.90;;;;;;5023133;28;20026;-85
2022/12/24 05:03:58;;;;;;;31.67;4.00;;;9.10;99.90;;;;;;5021677;28;20070;-86
2022/12/24 05:06:31;;;;;;;24.35;3.00;;;10.70;99.90;;;;;;5020888;28;20017;-86
2022/12/24 05:08:57;;;;;;;26.75;3.78;;;9.10;99.90;;;;;;5021739;28;20031;-86
2022/12/24 05:11:23;;;;;;;24.75;1.17;;;9.20;99.90;;;;;;5021026;28;20370;-86
2022/12/24 05:13:49;;;;;;;20.02;0.82;;;9.20;99.90;;;;;;5039117;28;20029;-86
2022/12/24 05:16:16;;;;;;;34.28;2.67;;;9.20;99.90;;;;;;5022140;28;20026;-84
2022/12/24 05:18:42;;;;;;;16.23;1.50;;;10.10;99.90;;;;;;5021733;28;20026;-84
2022/12/24 05:21:14;;;;;;;28.95;1.55;;;9.20;99.90;;;;;;5022343;28;20025;-85
2022/12/24 05:26:31;;;;;;;32.38;4.05;;;10.30;99.90;;;;;;5039226;28;20043;-84
2022/12/24 05:28:59;;;;;;;34.88;3.90;;;9.20;99.90;;;;;;5021705;28;20053;-85
2022/12/24 05:31:28;;;;;;;33.67;2.17;;;9.20;99.90;;;;;;5022073;28;20025;-85
2022/12/24 05:33:54;;;;;;;18.65;1.38;;;9.30;99.90;;;;;;5022177;28;20075;-85
2022/12/24 05:38:51;;;;;;;22.13;1.90;;;9.40;99.90;;;;;;5076386;28;20055;-83
2022/12/24 05:41:17;;;;;;;22.48;2.05;;;9.40;99.90;;;;;;5077568;28;20020;-83
2022/12/24 05:43:43;;;;;;;21.58;1.50;;;9.40;99.90;;;;;;5079604;28;20024;-84
2022/12/24 05:46:12;;;;;;;24.77;2.17;;;9.40;99.90;;;;;;5078218;28;20395;-84
2022/12/24 05:48:38;;;;;;;26.75;3.03;;;9.40;99.90;;;;;;5079030;28;20032;-85
2022/12/24 05:51:06;;;;;;;26.45;3.35;;;9.50;99.90;;;;;;5077871;28;20043;-85
2022/12/24 05:53:32;;;;;;;33.45;1.98;;;9.40;99.90;;;;;;5079794;28;20020;-84
2022/12/24 05:56:05;;;;;;;31.42;2.92;;;12.00;99.90;;;;;;5076667;28;20021;-84
2022/12/24 05:58:31;;;;;;;30.48;2.28;;;9.50;99.90;;;;;;5079380;28;20543;-84
2022/12/24 06:00:57;;;;;;;34.92;2.97;;;;;;;;;;5078547;28;20045;-84
2022/12/24 06:03:22;;;;;;;26.10;2.65;;;9.50;99.90;;;;;;5078350;28;20028;-85
2022/12/24 06:05:48;;;;;;;23.73;2.60;;;9.40;99.90;;;;;;5077456;28;20039;-84
2022/12/24 06:08:13;;;;;;;32.13;3.67;;;11.50;99.90;;;;;;5077542;28;20020;-84
2022/12/24 06:10:39;;;;;;;29.30;3.70;;;9.50;99.90;;;;;;5076900;28;20025;-85
2022/12/24 06:13:04;;;;;;;36.47;3.25;;;9.40;99.90;;;;;;5079863;28;20070;-84
2022/12/24 06:15:30;;;;;;;28.58;2.33;;;9.30;99.90;;;;;;5077812;28;20017;-84
2022/12/24 06:17:55;;;;;;;28.45;4.25;;;10.30;99.90;;;;;;5077848;28;20029;-85
2022/12/24 06:20:21;;;;;;;24.13;3.90;;;9.50;99.90;;;;;;5078206;28;20074;-84
2022/12/24 06:22:47;;;;;;;32.33;2.38;;;12.90;99.90;;;;;;5077485;28;20108;-84
2022/12/24 06:25:12;;;;;;;29.60;2.40;;;9.40;99.90;;;;;;5076763;28;20017;-83
2022/12/24 06:27:40;;;;;;;29.05;1.67;;;9.30;99.90;;;;;;5078084;28;20009;-83
2022/12/24 06:30:07;;;;;;;34.58;5.68;;;9.40;99.90;;;;;;5077746;28;20395;-84
2022/12/24 06:32:32;;;;;;;37.08;3.83;;;9.40;99.90;;;;;;5077139;28;20028;-83
2022/12/24 06:34:58;;;;;;;43.25;4.20;;;10.40;99.90;;;;;;5077118;28;20058;-84
2022/12/24 06:37:23;;;;;;;43.90;4.47;;;9.30;99.90;;;;;;5078415;28;20414;-83
2022/12/24 06:39:49;;;;;;;28.27;2.67;;;11.10;99.90;;;;;;5076981;28;20487;-84
2022/12/24 06:42:14;;;;;;;39.75;2.38;;;9.90;99.90;;;;;;5079035;28;20024;-84
2022/12/24 06:44:40;;;;;;;32.20;2.72;;;9.40;99.90;;;;;;5077596;28;20028;-84
2022/12/24 06:47:06;;;;;;;32.65;4.85;;;9.30;99.90;;;;;;5076929;28;20025;-85
2022/12/24 06:49:31;;;;;;;38.55;3.55;;;12.50;99.90;;;;;;5076671;28;20021;-84
2022/12/24 06:51:57;;;;;;;39.97;3.08;;;13.10;99.90;;;;;;5078441;28;20506;-84
2022/12/24 06:54:22;;;;;;;34.17;3.63;;;12.10;99.90;;;;;;5076846;28;20020;-83
2022/12/24 06:56:48;;;;;;;35.92;2.95;;;9.50;99.90;;;;;;5079715;28;20039;-83
2022/12/24 06:59:13;;;;;;;38.92;4.38;;;9.40;99.90;;;;;;5077126;28;20044;-83
2022/12/24 07:01:39;;;;;;;41.35;4.95;;;9.40;99.90;;;;;;5076836;28;20029;-82
2022/12/24 07:04:04;;;;;;;36.63;4.07;;;12.50;99.90;;;;;;5077594;28;20459;-83
2022/12/24 07:06:30;;;;;;;38.53;4.15;;;10.10;99.90;;;;;;5078448;28;20387;-83
2022/12/24 07:08:56;;;;;;;36.00;2.67;;;11.00;99.90;;;;;;5077535;28;20036;-83
2022/12/24 07:11:23;;;;;;;24.60;4.55;;;9.40;99.90;;;;;;5076990;28;20025;-83
2022/12/24 07:13:49;;;;;;;36.85;3.10;;;9.30;99.90;;;;;;5077143;28;20021;-86
2022/12/24 07:16:15;;;;;;;38.17;3.60;;;9.30;99.90;;;;;;5077479;28;20028;-85
2022/12/24 07:18:41;;;;;;;36.75;3.70;;;9.30;99.90;;;;;;5078044;28;20033;-85
2022/12/24 07:21:06;;;;;;;40.33;3.63;;;9.30;99.90;;;;;;5078111;28;20069;-84
2022/12/24 07:23:33;;;;;;;41.08;4.07;;;;;;;;;;5081821;28;20069;-84
2022/12/24 07:26:03;;;;;;;43.88;4.45;;;9.10;99.90;;;;;;5083787;28;20508;-84
2022/12/24 07:28:29;;;;;;;30.90;2.97;;;9.10;99.90;;;;;;5083816;28;20101;-85
2022/12/24 07:30:56;;;;;;;34.30;3.38;;;9.10;99.90;;;;;;5082889;28;20028;-84
2022/12/24 07:33:23;;;;;;;30.73;3.25;;;9.10;99.90;;;;;;5081975;28;20103;-83
2022/12/24 07:35:56;;;;;;;31.15;3.20;;;10.30;99.90;;;;;;5082554;28;20070;-83
2022/12/24 07:38:22;;;;;;;48.00;4.60;;;;;;;;;;5082914;28;20021;-83
2022/12/24 07:40:47;;;;;;;32.13;3.20;;;9.10;99.90;;;;;;5082071;28;20028;-83
2022/12/24 07:43:13;;;;;;;27.77;2.90;;;10.40;99.90;;;;;;5087531;28;20449;-81
2022/12/24 07:45:41;;;;;;;34.85;4.57;;;9.20;99.90;;;;;;5088717;28;20391;-81
2022/12/24 07:48:07;;;;;;;30.45;3.67;;;9.20;99.90;;;;;;5088087;28;20542;-81
2022/12/24 07:50:32;;;;;;;27.77;2.75;;;9.20;99.90;;;;;;5086980;28;20028;-81
2022/12/24 07:52:58;;;;;;;36.17;3.42;;;9.10;99.90;;;;;;5087286;28;20029;-81
2022/12/24 07:55:23;;;;;;;26.80;2.53;;;9.10;99.90;;;;;;5088312;28;20017;-81
2022/12/24 07:57:49;;;;;;;33.03;4.05;;;9.10;99.90;;;;;;5088498;28;20080;-80
2022/12/24 08:00:15;;;;;;;29.65;2.78;;;9.10;99.90;;;;;;5083411;28;20032;-81
2022/12/24 08:02:40;;;;;;;30.92;2.55;;;9.00;99.90;;;;;;5087136;28;20029;-82
2022/12/24 08:05:06;;;;;;;32.20;2.03;;;9.10;99.90;;;;;;5085904;28;20099;-81
2022/12/24 08:07:33;;;;;;;26.48;2.97;;;;;;;;;;5086454;28;20013;-82
2022/12/24 08:09:58;;;;;;;33.60;2.25;;;9.10;99.90;;;;;;5085698;28;20025;-81
2022/12/24 08:12:24;;;;;;;26.63;2.30;;;9.20;99.90;;;;;;5088029;28;20035;-81
2022/12/24 08:14:50;;;;;;;44.20;3.55;;;9.20;99.90;;;;;;5087126;28;20021;-81
2022/12/24 08:17:15;;;;;;;36.47;4.35;;;9.20;99.90;;;;;;5083597;28;20024;-82
2022/12/24 08:19:41;;;;;;;33.97;3.42;;;9.00;99.90;;;;;;5082866;28;20052;-81
2022/12/24 08:22:06;;;;;;;25.65;3.00;;;11.40;99.90;;;;;;5085399;28;20028;-81
2022/12/24 08:24:32;;;;;;;38.15;3.72;;;9.00;99.90;;;;;;5086148;28;20495;-82
2022/12/24 08:26:57;;;;;;;32.35;2.50;;;9.00;99.90;;;;;;5088237;28;20033;-82
2022/12/24 08:29:23;;;;;;;30.38;2.88;;;11.10;99.90;;;;;;5081203;28;20048;-87
2022/12/24 08:31:49;;;;;;;30.33;2.40;;;9.10;99.90;;;;;;5076940;28;20020;-86
2022/12/24 08:34:14;;;;;;;20.13;2.17;;;11.50;99.90;;;;;;5075886;28;20093;-87
2022/12/24 08:36:40;;;;;;;50.85;5.75;;;9.10;99.90;;;;;;5077838;28;20046;-88
2022/12/24 08:39:07;;;;;;;31.42;3.25;;;9.30;99.90;;;;;;5079667;28;20025;-86
2022/12/24 08:41:33;;;;;;;31.35;3.28;;;9.30;99.90;;;;;;5079448;28;20016;-86
2022/12/24 08:43:59;;;;;;;41.78;3.35;;;10.00;99.90;;;;;;5080166;28;20464;-87
2022/12/24 08:46:25;;;;;;;48.03;7.15;;;11.20;99.90;;;;;;5079752;28;20050;-84
2022/12/24 08:48:50;;;;;;;45.35;7.47;;;9.20;99.90;;;;;;5077902;28;20020;-86
2022/12/24 08:51:18;;;;;;;31.05;3.55;;;9.30;99.90;;;;;;5078315;28;20043;-85
2022/12/24 08:53:44;;;;;;;31.02;3.55;;;10.20;99.90;;;;;;5077771;28;20479;-86
2022/12/24 08:56:11;;;;;;;43.15;3.55;;;11.70;99.90;;;;;;5078933;28;20020;-86
2022/12/24 08:58:37;;;;;;;37.80;4.70;;;9.50;99.90;;;;;;5078065;28;20047;-86
2022/12/24 09:01:13;;;;;;;44.30;4.25;;;9.50;99.90;;;;;;5078597;28;20032;-87
2022/12/24 09:03:39;;;;;;;33.72;3.50;;;9.50;99.90;;;;;;5077596;28;20483;-86
2022/12/24 09:06:06;;;;;;;35.40;3.15;;;9.60;99.90;;;;;;5078251;28;20628;-87
2022/12/24 09:08:32;;;;;;;50.30;4.63;;;9.70;99.90;;;;;;5076118;28;20051;-86
2022/12/24 09:11:05;;;;;;;27.15;3.38;;;10.20;99.90;;;;;;5076165;28;20017;-87
2022/12/24 09:13:31;;;;;;;42.90;4.63;;;9.80;99.90;;;;;;5076993;28;20023;-86
2022/12/24 09:15:57;;;;;;;32.47;2.78;;;;;;;;;;5077783;28;20371;-87
2022/12/24 09:18:24;;;;;;;33.67;3.17;;;9.80;99.90;;;;;;5077030;28;20032;-86
2022/12/24 09:20:49;;;;;;;27.80;3.67;;;10.50;99.90;;;;;;5075722;28;20025;-86
2022/12/24 09:23:15;;;;;;;32.40;2.65;;;9.80;99.90;;;;;;5082541;28;20036;-82
2022/12/24 09:25:41;;;;;;;39.28;5.05;;;9.80;99.90;;;;;;5080977;28;20027;-82
2022/12/24 09:28:09;;;;;;;29.33;3.45;;;13.30;99.90;;;;;;5081650;28;20029;-81
2022/12/24 09:30:36;;;;;;;18.90;2.25;;;10.90;99.90;;;;;;5087388;28;20048;-82
2022/12/24 09:33:01;;;;;;;32.20;3.83;;;10.00;99.90;;;;;;5086219;28;20106;-81
2022/12/24 09:35:27;;;;;;;25.85;2.70;;;10.00;99.90;;;;;;5084395;28;20112;-81
2022/12/24 09:38:01;;;;;;;25.48;2.50;;;10.00;99.90;;;;;;5085703;28;20025;-81
2022/12/24 09:40:36;;;;;;;27.90;3.25;;;10.00;99.90;;;;;;5085854;28;20046;-81
2022/12/24 09:43:07;;;;;;;20.38;2.33;;;10.00;99.90;;;;;;5086670;28;20433;-82
2022/12/24 09:45:37;;;;;;;27.83;2.30;;;10.00;99.90;;;;;;5084045;28;20495;-82
2022/12/24 09:48:08;;;;;;;31.80;4.07;;;11.90;99.90;;;;;;5086309;28;20085;-79
2022/12/24 09:50:43;;;;;;;27.08;3.50;;;10.20;99.90;;;;;;5077193;28;20013;-81
2022/12/24 09:53:28;;;;;;;22.75;1.42;;;10.20;99.90;;;;;;5077885;28;20023;-80
2022/12/24 09:55:57;;;;;;;25.60;2.88;;;10.20;99.90;;;;;;5086265;28;20036;-82
2022/12/24 09:58:40;;;;;;;37.65;3.10;;;10.10;99.90;;;;;;5085270;28;20023;-81
2022/12/24 10:01:09;;;;;;;24.77;2.22;;;10.20;99.90;;;;;;5086074;28;20036;-81
2022/12/24 10:03:35;;;;;;;33.40;3.65;;;12.00;99.90;;;;;;5078058;28;20059;-81
2022/12/24 10:06:19;;;;;;;18.73;1.73;;;10.20;99.90;;;;;;5084560;28;20024;-81
2022/12/24 10:09:02;;;;;;;28.92;2.88;;;10.20;99.90;;;;;;5086440;28;20060;-80
2022/12/24 10:11:52;;;;;;;32.60;4.70;;;10.20;99.90;;;;;;5081850;28;20028;-79
2022/12/24 10:14:36;;;;;;;27.70;1.85;;;10.20;99.90;;;;;;5078680;28;20503;-80
2022/12/24 10:17:33;;;;;;;26.35;3.67;;;10.30;99.90;;;;;;5085508;28;20021;-82
2022/12/24 10:20:10;;;;;;;27.77;2.17;;;10.40;99.90;;;;;;5079052;28;20062;-81
2022/12/24 10:22:54;;;;;;;24.60;3.10;;;10.50;99.90;;;;;;5078488;28;20063;-79
2022/12/24 10:25:29;;;;;;;24.20;2.53;;;10.50;99.90;;;;;;5081838;28;20020;-81
2022/12/24 10:27:57;;;;;;;22.30;1.52;;;10.60;99.90;;;;;;5079879;28;20494;-80
2022/12/24 10:30:23;;;;;;;33.50;2.33;;;10.60;99.90;;;;;;5078767;28;20052;-80
2022/12/24 10:32:51;;;;;;;26.27;2.95;;;10.70;99.90;;;;;;5075975;28;20055;-81
2022/12/24 10:35:22;;;;;;;31.35;3.78;;;10.70;99.90;;;;;;5080900;28;20064;-81
2022/12/24 10:37:50;;;;;;;23.02;2.22;;;11.30;99.90;;;;;;5080594;28;20056;-78
2022/12/24 10:40:21;;;;;;;26.73;3.78;;;10.80;99.90;;;;;;5077537;28;20036;-81
2022/12/24 10:42:47;;;;;;;32.83;3.50;;;10.70;99.90;;;;;;5084602;28;20028;-81
2022/12/24 10:45:20;;;;;;;27.05;3.05;;;11.60;99.90;;;;;;5083428;28;20020;-81
2022/12/24 10:47:49;;;;;;;23.27;1.70;;;11.20;99.90;;;;;;5083761;28;20064;-82
2022/12/24 10:50:27;;;;;;;21.63;2.30;;;11.20;99.90;;;;;;5077098;28;20017;-80
2022/12/24 10:52:58;;;;;;;26.05;2.97;;;10.70;99.90;;;;;;5076222;28;20024;-81
2022/12/24 10:55:25;;;;;;;23.58;2.45;;;11.40;99.90;;;;;;5076688;28;20028;-80
2022/12/24 10:58:04;;;;;;;23.77;2.10;;;10.70;99.90;;;;;;5084629;28;20499;-81
2022/12/24 11:00:31;;;;;;;24.77;3.40;;;10.70;99.90;;;;;;5083317;28;20026;-82
2022/12/24 11:03:10;;;;;;;29.27;1.95;;;10.70;99.90;;;;;;5081606;28;20495;-82
2022/12/24 11:05:37;;;;;;;21.17;1.00;;;10.80;99.90;;;;;;5077702;28;20028;-81
2022/12/24 11:08:13;;;;;;;24.95;2.88;;;11.10;99.90;;;;;;5083917;28;20021;-82
2022/12/24 11:10:52;;;;;;;29.52;2.92;;;10.80;99.90;;;;;;5086355;28;20080;-82
2022/12/24 11:13:22;;;;;;;41.17;3.67;;;11.80;99.90;;;;;;5079489;28;20023;-81
2022/12/24 11:15:58;;;;;;;22.40;2.33;;;10.60;99.90;;;;;;5078345;28;20025;-81
2022/12/24 11:18:23;;;;;;;23.45;1.92;;;10.60;99.90;;;;;;5080482;28;20024;-81
2022/12/24 11:20:51;;;;;;;19.27;1.65;;;10.60;99.90;;;;;;5079137;28;20016;-79
2022/12/24 11:23:17;;;;;;;14.38;1.60;;;10.50;99.90;;;;;;5077838;28;20032;-79
2022/12/24 11:25:49;;;;;;;40.13;4.53;;;10.50;99.90;;;;;;5081385;28;20387;-81
2022/12/24 11:28:23;;;;;;;30.75;1.70;;;11.10;99.90;;;;;;5076089;28;20454;-79
2022/12/24 11:31:04;;;;;;;31.70;3.17;;;10.50;99.90;;;;;;5076335;28;20074;-76
2022/12/24 11:33:30;;;;;;;19.30;1.27;;;10.60;99.90;;;;;;5072312;28;20082;-77
2022/12/24 11:36:06;;;;;;;22.85;1.88;;;10.70;99.90;;;;;;5071705;28;20392;-77
2022/12/24 11:38:33;;;;;;;24.63;1.92;;;10.50;99.90;;;;;;5072934;28;20075;-77
2022/12/24 11:41:11;;;;;;;23.83;1.90;;;10.50;99.90;;;;;;5071758;28;20120;-77
2022/12/24 11:43:44;;;;;;;18.85;2.00;;;10.50;99.90;;;;;;5073635;28;20035;-78
2022/12/24 11:46:12;;;;;;;23.05;1.75;;;10.40;99.90;;;;;;5073039;28;20021;-77
2022/12/24 11:48:37;;;;;;;18.00;2.28;;;10.50;99.90;;;;;;5073223;28;20035;-77
2022/12/24 11:51:05;;;;;;;13.15;0.88;;;10.60;99.90;;;;;;5072792;28;20479;-77
2022/12/24 11:53:48;;;;;;;13.73;1.23;;;10.50;99.90;;;;;;5073772;28;20021;-76
2022/12/24 11:56:34;;;;;;;16.88;1.25;;;10.60;99.90;;;;;;5074925;28;20021;-78
2022/12/24 11:59:28;;;;;;;17.77;1.50;;;10.50;99.90;;;;;;5072886;28;20033;-78
2022/12/24 12:02:22;;;;;;;16.67;0.57;;;10.50;99.90;;;;;;5074401;28;20391;-79
2022/12/24 12:04:58;;;;;;;17.40;1.73;;;10.60;99.90;;;;;;5074638;28;20048;-78
2022/12/24 12:07:30;;;;;;;24.52;1.05;;;10.60;99.90;;;;;;5072085;28;20549;-76
2022/12/24 12:10:25;;;;;;;11.82;0.88;;;10.90;99.90;;;;;;5076107;28;20055;-76
2022/12/24 12:13:12;;;;;;;12.15;0.95;;;10.70;99.90;;;;;;5069132;28;20110;-78
2022/12/24 12:16:02;;;;;;;12.38;2.05;;;10.80;99.90;;;;;;5076852;28;20031;-78
2022/12/24 12:18:34;;;;;;;20.92;1.75;;;10.80;99.90;;;;;;5076663;28;20086;-78
2022/12/24 12:21:13;;;;;;;11.02;0.57;;;10.80;99.90;;;;;;5078322;28;20099;-78
2022/12/24 12:24:06;;;;;;;16.50;1.63;;;10.70;99.90;;;;;;5080386;28;20391;-78
2022/12/24 12:26:32;;;;;;;11.55;0.93;;;10.70;99.90;;;;;;5077687;28;20021;-78
2022/12/24 12:29:04;;;;;;;15.95;1.50;;;10.70;99.90;;;;;;5077271;28;20365;-78
2022/12/24 12:31:37;;;;;;;19.52;2.17;;;10.60;99.90;;;;;;5077703;28;20031;-78
2022/12/24 12:34:11;;;;;;;16.42;0.88;;;10.60;99.90;;;;;;5078683;28;20111;-79
2022/12/24 12:37:02;;;;;;;18.90;1.15;;;10.60;99.90;;;;;;5080520;28;20021;-79
2022/12/24 12:39:30;;;;;;;9.23;0.70;;;10.60;99.90;;;;;;5082054;28;20064;-79
2022/12/24 12:42:17;;;;;;;16.33;1.83;;;10.60;99.90;;;;;;5080940;28;20059;-79
2022/12/24 12:45:05;;;;;;;7.80;0.93;;;12.00;99.90;;;;;;5080375;28;20021;-79
2022/12/24 12:47:44;;;;;;;15.82;0.73;;;10.70;99.90;;;;;;5078506;28;20047;-79
2022/12/24 12:50:22;;;;;;;14.30;0.77;;;10.80;99.90;;;;;;5079515;28;20043;-79
2022/12/24 12:52:53;;;;;;;10.43;0.88;;;10.70;99.90;;;;;;5078420;28;20025;-79
2022/12/24 12:56:05;;;;;;;18.35;0.68;;;10.80;99.90;;;;;;5078498;28;20032;-79
2022/12/24 12:58:53;;;;;;;19.63;0.80;;;11.00;99.90;;;;;;5049485;28;20024;-78
2022/12/24 13:01:56;;;;;;;12.73;1.02;;;10.90;99.90;;;;;;5077685;28;20388;-81
2022/12/24 13:04:44;;;;;;;14.18;1.73;;;10.90;99.90;;;;;;5076209;28;20032;-76
2022/12/24 13:07:42;;;;;;;13.63;0.93;;;10.90;99.90;;;;;;5075693;28;20028;-76
2022/12/24 13:10:34;;;;;;;16.13;0.80;;;10.90;99.90;;;;;;5068160;28;20060;-77
2022/12/24 13:13:05;;;;;;;13.95;1.17;;;10.90;99.90;;;;;;5074294;28;20020;-76
2022/12/24 13:16:00;;;;;;;16.17;1.13;;;11.00;99.90;;;;;;5074466;28;20029;-76
2022/12/24 13:18:37;;;;;;;18.65;1.90;;;11.00;99.90;;;;;;5075414;28;20025;-76